sensor_id;sensor_type;location;lat;lon;timestamp;pressure;altitude;pressure_sealevel;temperature;humidity
55289;BME280;41154;45.394;5.734;2024-02-21T08:30:27;97793.50;;;4.23;100.00
55289;BME280;41154;45.394;5.734;2024-02-21T08:32:52;97802.09;;;4.75;100.00
55289;BME280;41154;45.394;5.734;2024-02-21T08:35:19;97802.88;;;5.32;100.00
55289;BME280;41154;45.394;5.734;2024-02-21T08:37:47;97791.16;;;5.19;100.00
55289;BME280;41154;45.394;5.734;2024-02-21T08:40:14;97792.75;;;5.49;100.00
55289;BME280;41154;45.394;5.734;2024-02-21T08:42:43;97785.38;;;5.51;100.00
55289;BME280;41154;45.394;5.734;2024-02-21T08:45:09;97781.72;;;5.52;100.00
55289;BME280;41154;45.394;5.734;2024-02-21T08:47:36;97779.03;;;6.14;100.00
55289;BME280;41154;45.394;5.734;2024-02-21T08:50:02;97780.25;;;6.04;100.00
55289;BME280;41154;45.394;5.734;2024-02-21T08:52:28;97772.53;;;6.29;100.00
55289;BME280;41154;45.394;5.734;2024-02-21T08:54:53;97761.22;;;6.34;100.00
55289;BME280;41154;45.394;5.734;2024-02-21T08:57:19;97751.59;;;6.20;100.00
55289;BME280;41154;45.394;5.734;2024-02-21T08:59:45;97755.19;;;5.79;100.00
55289;BME280;41154;45.394;5.734;2024-02-21T09:02:13;97751.41;;;6.28;100.00
55289;BME280;41154;45.394;5.734;2024-02-21T09:04:38;97743.72;;;5.85;100.00
55289;BME280;41154;45.394;5.734;2024-02-21T09:07:04;97736.34;;;5.80;100.00
55289;BME280;41154;45.394;5.734;2024-02-21T09:09:30;97740.91;;;6.00;100.00
55289;BME280;41154;45.394;5.734;2024-02-21T09:11:57;97736.00;;;6.17;100.00
55289;BME280;41154;45.394;5.734;2024-02-21T09:14:23;97743.00;;;6.64;100.00
55289;BME280;41154;45.394;5.734;2024-02-21T09:16:49;97752.16;;;7.15;100.00
55289;BME280;41154;45.394;5.734;2024-02-21T09:19:15;97750.84;;;7.38;100.00
55289;BME280;41154;45.394;5.734;2024-02-21T09:21:40;97747.72;;;7.54;100.00
55289;BME280;41154;45.394;5.734;2024-02-21T09:24:06;97750.59;;;7.53;100.00
55289;BME280;41154;45.394;5.734;2024-02-21T09:26:32;97751.16;;;7.68;100.00
55289;BME280;41154;45.394;5.734;2024-02-21T09:28:58;97751.81;;;7.50;100.00
55289;BME280;41154;45.394;5.734;2024-02-21T09:31:23;97753.09;;;7.86;100.00
55289;BME280;41154;45.394;5.734;2024-02-21T09:33:49;97747.94;;;8.23;100.00
55289;BME280;41154;45.394;5.734;2024-02-21T09:36:15;97752.09;;;8.51;100.00
55289;BME280;41154;45.394;5.734;2024-02-21T09:38:40;97753.94;;;8.76;100.00
55289;BME280;41154;45.394;5.734;2024-02-21T09:41:17;97754.03;;;8.62;100.00
55289;BME280;41154;45.394;5.734;2024-02-21T09:43:45;97748.91;;;8.61;100.00
55289;BME280;41154;45.394;5.734;2024-02-21T09:46:17;97747.66;;;8.63;100.00
55289;BME280;41154;45.394;5.734;2024-02-21T09:51:12;97753.69;;;9.03;100.00
55289;BME280;41154;45.394;5.734;2024-02-21T09:53:40;97754.75;;;9.39;100.00
55289;BME280;41154;45.394;5.734;2024-02-21T09:56:10;97756.06;;;9.29;100.00
55289;BME280;41154;45.394;5.734;2024-02-21T09:58:36;97746.22;;;9.79;100.00
55289;BME280;41154;45.394;5.734;2024-02-21T10:01:03;97742.06;;;9.64;100.00
55289;BME280;41154;45.394;5.734;2024-02-21T10:03:32;97736.84;;;9.69;100.00
55289;BME280;41154;45.394;5.734;2024-02-21T10:05:58;97734.03;;;9.64;100.00
55289;BME280;41154;45.394;5.734;2024-02-21T10:08:26;97735.75;;;9.89;100.00
55289;BME280;41154;45.394;5.734;2024-02-21T10:10:52;97732.63;;;9.92;100.00
55289;BME280;41154;45.394;5.734;2024-02-21T10:13:29;97719.44;;;9.90;100.00
55289;BME280;41154;45.394;5.734;2024-02-21T10:16:05;97709.41;;;9.86;100.00
55289;BME280;41154;45.394;5.734;2024-02-21T10:18:32;97707.69;;;9.61;100.00
55289;BME280;41154;45.394;5.734;2024-02-21T10:23:26;97693.09;;;9.76;100.00
55289;BME280;41154;45.394;5.734;2024-02-21T10:25:52;97697.13;;;10.63;100.00
55289;BME280;41154;45.394;5.734;2024-02-21T10:28:18;97689.06;;;9.97;100.00
55289;BME280;41154;45.394;5.734;2024-02-21T10:30:52;97681.53;;;10.05;100.00
55289;BME280;41154;45.394;5.734;2024-02-21T10:33:18;97677.59;;;9.78;100.00
55289;BME280;41154;45.394;5.734;2024-02-21T10:35:47;97671.28;;;9.72;100.00
55289;BME280;41154;45.394;5.734;2024-02-21T10:38:15;97669.72;;;9.95;100.00
55289;BME280;41154;45.394;5.734;2024-02-21T10:40:41;97677.94;;;10.23;100.00
55289;BME280;41154;45.394;5.734;2024-02-21T10:43:12;97677.75;;;10.84;100.00
55289;BME280;41154;45.394;5.734;2024-02-21T10:45:38;97667.44;;;11.17;100.00
55289;BME280;41154;45.394;5.734;2024-02-21T10:48:11;97667.72;;;11.03;100.00
55289;BME280;41154;45.394;5.734;2024-02-21T10:50:57;97656.28;;;11.37;100.00
55289;BME280;41154;45.394;5.734;2024-02-21T10:53:41;97661.16;;;10.99;100.00
55289;BME280;41154;45.394;5.734;2024-02-21T10:58:41;97635.13;;;11.11;100.00
55289;BME280;41154;45.394;5.734;2024-02-21T11:01:08;97619.72;;;10.95;100.00
55289;BME280;41154;45.394;5.734;2024-02-21T11:03:34;97619.88;;;10.76;100.00
55289;BME280;41154;45.394;5.734;2024-02-21T11:06:01;97615.59;;;11.16;100.00
55289;BME280;41154;45.394;5.734;2024-02-21T11:08:28;97613.19;;;11.03;100.00
55289;BME280;41154;45.394;5.734;2024-02-21T11:10:57;97605.38;;;11.59;100.00
55289;BME280;41154;45.394;5.734;2024-02-21T11:13:32;97598.72;;;10.92;100.00
55289;BME280;41154;45.394;5.734;2024-02-21T11:16:11;97602.78;;;11.06;100.00
55289;BME280;41154;45.394;5.734;2024-02-21T11:18:38;97599.84;;;11.48;100.00
55289;BME280;41154;45.394;5.734;2024-02-21T11:21:04;97589.00;;;11.14;100.00
55289;BME280;41154;45.394;5.734;2024-02-21T11:23:32;97587.50;;;11.81;100.00
55289;BME280;41154;45.394;5.734;2024-02-21T11:26:08;97573.94;;;11.13;100.00
55289;BME280;41154;45.394;5.734;2024-02-21T11:28:34;97560.13;;;11.84;100.00
55289;BME280;41154;45.394;5.734;2024-02-21T11:31:12;97559.94;;;12.03;100.00
55289;BME280;41154;45.394;5.734;2024-02-21T11:33:41;97554.13;;;12.11;100.00
55289;BME280;41154;45.394;5.734;2024-02-21T11:36:08;97550.59;;;12.28;100.00
55289;BME280;41154;45.394;5.734;2024-02-21T11:38:34;97547.78;;;12.00;100.00
55289;BME280;41154;45.394;5.734;2024-02-21T11:41:00;97547.44;;;12.53;97.00
55289;BME280;41154;45.394;5.734;2024-02-21T11:43:25;97542.28;;;12.12;99.53
55289;BME280;41154;45.394;5.734;2024-02-21T11:45:59;97539.31;;;12.31;97.79
55289;BME280;41154;45.394;5.734;2024-02-21T11:48:25;97532.06;;;12.09;100.00
55289;BME280;41154;45.394;5.734;2024-02-21T11:50:55;97532.38;;;12.13;100.00
55289;BME280;41154;45.394;5.734;2024-02-21T11:53:21;97520.59;;;12.36;100.00
55289;BME280;41154;45.394;5.734;2024-02-21T11:55:47;97512.06;;;12.44;100.00
55289;BME280;41154;45.394;5.734;2024-02-21T11:58:13;97504.75;;;12.62;100.00
55289;BME280;41154;45.394;5.734;2024-02-21T12:00:38;97500.97;;;12.57;99.83
55289;BME280;41154;45.394;5.734;2024-02-21T12:03:05;97490.19;;;13.07;100.00
55289;BME280;41154;45.394;5.734;2024-02-21T12:05:31;97478.53;;;12.74;100.00
55289;BME280;41154;45.394;5.734;2024-02-21T12:07:57;97477.69;;;12.95;100.00
55289;BME280;41154;45.394;5.734;2024-02-21T12:10:26;97478.13;;;13.15;100.00
55289;BME280;41154;45.394;5.734;2024-02-21T12:13:08;97462.69;;;13.05;100.00
55289;BME280;41154;45.394;5.734;2024-02-21T12:15:34;97461.94;;;13.09;100.00
55289;BME280;41154;45.394;5.734;2024-02-21T12:18:00;97460.44;;;13.51;100.00
55289;BME280;41154;45.394;5.734;2024-02-21T12:20:26;97465.13;;;13.34;100.00
55289;BME280;41154;45.394;5.734;2024-02-21T12:22:52;97461.56;;;13.28;100.00
55289;BME280;41154;45.394;5.734;2024-02-21T12:25:21;97463.34;;;13.17;100.00
55289;BME280;41154;45.394;5.734;2024-02-21T12:27:52;97448.03;;;13.23;100.00
55289;BME280;41154;45.394;5.734;2024-02-21T12:30:19;97445.25;;;13.40;100.00
55289;BME280;41154;45.394;5.734;2024-02-21T12:32:45;97450.44;;;13.46;96.62
55289;BME280;41154;45.394;5.734;2024-02-21T12:35:11;97439.81;;;13.35;99.58
55289;BME280;41154;45.394;5.734;2024-02-21T12:37:37;97426.34;;;13.35;100.00
55289;BME280;41154;45.394;5.734;2024-02-21T12:40:08;97428.91;;;13.52;98.77
55289;BME280;41154;45.394;5.734;2024-02-21T12:42:34;97423.91;;;13.71;92.60
55289;BME280;41154;45.394;5.734;2024-02-21T12:45:01;97419.59;;;14.17;90.31
55289;BME280;41154;45.394;5.734;2024-02-21T12:47:28;97418.00;;;13.74;92.95
55289;BME280;41154;45.394;5.734;2024-02-21T12:49:54;97409.63;;;13.70;94.95
55289;BME280;41154;45.394;5.734;2024-02-21T12:52:19;97411.41;;;13.54;100.00
55289;BME280;41154;45.394;5.734;2024-02-21T12:54:46;97406.97;;;13.75;97.65
55289;BME280;41154;45.394;5.734;2024-02-21T12:57:12;97398.09;;;13.80;100.00
55289;BME280;41154;45.394;5.734;2024-02-21T12:59:38;97390.94;;;14.01;100.00
55289;BME280;41154;45.394;5.734;2024-02-21T13:02:05;97385.81;;;14.05;98.76
55289;BME280;41154;45.394;5.734;2024-02-21T13:04:31;97380.34;;;13.89;96.88
55289;BME280;41154;45.394;5.734;2024-02-21T13:06:57;97373.91;;;13.95;94.12
55289;BME280;41154;45.394;5.734;2024-02-21T13:09:23;97371.97;;;13.43;96.28
55289;BME280;41154;45.394;5.734;2024-02-21T13:11:48;97369.47;;;13.69;94.07
55289;BME280;41154;45.394;5.734;2024-02-21T13:14:16;97358.00;;;13.99;93.04
55289;BME280;41154;45.394;5.734;2024-02-21T13:16:42;97359.53;;;13.37;94.30
55289;BME280;41154;45.394;5.734;2024-02-21T13:19:08;97347.88;;;13.63;99.17
55289;BME280;41154;45.394;5.734;2024-02-21T13:21:34;97350.31;;;13.70;98.24
55289;BME280;41154;45.394;5.734;2024-02-21T13:24:01;97353.63;;;13.82;96.90
55289;BME280;41154;45.394;5.734;2024-02-21T13:26:27;97349.75;;;13.63;96.78
55289;BME280;41154;45.394;5.734;2024-02-21T13:28:53;97335.59;;;13.40;96.01
55289;BME280;41154;45.394;5.734;2024-02-21T13:31:19;97336.53;;;13.24;98.94
55289;BME280;41154;45.394;5.734;2024-02-21T13:33:45;97332.84;;;13.35;98.13
55289;BME280;41154;45.394;5.734;2024-02-21T13:36:11;97316.22;;;13.43;98.70
55289;BME280;41154;45.394;5.734;2024-02-21T13:38:37;97317.91;;;13.17;95.97
55289;BME280;41154;45.394;5.734;2024-02-21T13:41:05;97314.25;;;13.34;92.88
55289;BME280;41154;45.394;5.734;2024-02-21T13:43:31;97309.63;;;13.29;95.45
55289;BME280;41154;45.394;5.734;2024-02-21T13:46:01;97295.06;;;13.25;97.05
55289;BME280;41154;45.394;5.734;2024-02-21T13:48:35;97288.25;;;13.12;95.54
55289;BME280;41154;45.394;5.734;2024-02-21T13:51:01;97279.41;;;13.22;92.20
55289;BME280;41154;45.394;5.734;2024-02-21T13:53:28;97270.25;;;13.23;93.40
55289;BME280;41154;45.394;5.734;2024-02-21T13:55:54;97274.97;;;13.43;96.61
55289;BME280;41154;45.394;5.734;2024-02-21T13:58:20;97275.31;;;13.14;93.46
55289;BME280;41154;45.394;5.734;2024-02-21T14:00:46;97277.91;;;13.36;92.39
55289;BME280;41154;45.394;5.734;2024-02-21T14:03:12;97264.06;;;13.22;97.32
55289;BME280;41154;45.394;5.734;2024-02-21T14:05:38;97268.19;;;13.35;98.05
55289;BME280;41154;45.394;5.734;2024-02-21T14:08:06;97276.69;;;13.64;95.79
55289;BME280;41154;45.394;5.734;2024-02-21T14:10:32;97268.66;;;13.80;94.03
55289;BME280;41154;45.394;5.734;2024-02-21T14:12:59;97258.94;;;13.74;97.73
55289;BME280;41154;45.394;5.734;2024-02-21T14:15:24;97268.19;;;13.98;95.98
55289;BME280;41154;45.394;5.734;2024-02-21T14:17:50;97269.34;;;14.23;93.03
55289;BME280;41154;45.394;5.734;2024-02-21T14:20:16;97263.91;;;14.02;92.84
55289;BME280;41154;45.394;5.734;2024-02-21T14:22:42;97273.06;;;13.96;90.72
55289;BME280;41154;45.394;5.734;2024-02-21T14:25:08;97274.22;;;13.53;91.96
55289;BME280;41154;45.394;5.734;2024-02-21T14:27:34;97257.38;;;13.30;93.50
55289;BME280;41154;45.394;5.734;2024-02-21T14:30:02;97258.09;;;13.63;91.45
55289;BME280;41154;45.394;5.734;2024-02-21T14:32:28;97263.31;;;13.90;91.68
55289;BME280;41154;45.394;5.734;2024-02-21T14:34:54;97261.66;;;13.79;90.42
55289;BME280;41154;45.394;5.734;2024-02-21T14:37:20;97252.03;;;13.98;88.48
55289;BME280;41154;45.394;5.734;2024-02-21T14:39:47;97257.56;;;13.66;90.88
55289;BME280;41154;45.394;5.734;2024-02-21T14:42:13;97251.75;;;13.37;90.01
55289;BME280;41154;45.394;5.734;2024-02-21T14:44:38;97252.88;;;13.46;87.24
55289;BME280;41154;45.394;5.734;2024-02-21T14:47:04;97254.56;;;13.09;87.11
55289;BME280;41154;45.394;5.734;2024-02-21T14:49:30;97249.09;;;12.99;88.07
55289;BME280;41154;45.394;5.734;2024-02-21T14:51:56;97240.66;;;12.85;88.43
55289;BME280;41154;45.394;5.734;2024-02-21T14:54:22;97229.19;;;13.00;89.51
55289;BME280;41154;45.394;5.734;2024-02-21T14:56:49;97231.69;;;13.12;90.80
55289;BME280;41154;45.394;5.734;2024-02-21T14:59:15;97241.88;;;13.05;89.24
55289;BME280;41154;45.394;5.734;2024-02-21T15:01:42;97229.81;;;13.12;88.12
55289;BME280;41154;45.394;5.734;2024-02-21T15:04:08;97232.53;;;13.23;87.88
55289;BME280;41154;45.394;5.734;2024-02-21T15:06:33;97230.75;;;12.91;87.73
55289;BME280;41154;45.394;5.734;2024-02-21T15:09:02;97224.81;;;12.89;86.88
55289;BME280;41154;45.394;5.734;2024-02-21T15:11:29;97223.16;;;12.83;89.15
55289;BME280;41154;45.394;5.734;2024-02-21T15:13:54;97232.03;;;12.83;88.84
55289;BME280;41154;45.394;5.734;2024-02-21T15:16:20;97234.72;;;12.83;87.33
55289;BME280;41154;45.394;5.734;2024-02-21T15:18:46;97234.72;;;12.83;88.58
55289;BME280;41154;45.394;5.734;2024-02-21T15:21:11;97226.03;;;12.71;87.90
55289;BME280;41154;45.394;5.734;2024-02-21T15:23:40;97226.53;;;12.68;88.74
55289;BME280;41154;45.394;5.734;2024-02-21T15:26:07;97223.97;;;12.83;89.40
55289;BME280;41154;45.394;5.734;2024-02-21T15:28:37;97221.19;;;12.73;90.60
55289;BME280;41154;45.394;5.734;2024-02-21T15:31:03;97224.09;;;12.66;89.27
55289;BME280;41154;45.394;5.734;2024-02-21T15:33:29;97227.28;;;12.58;89.55
55289;BME280;41154;45.394;5.734;2024-02-21T15:35:54;97226.66;;;12.51;90.85
55289;BME280;41154;45.394;5.734;2024-02-21T15:38:25;97218.84;;;12.49;89.61
55289;BME280;41154;45.394;5.734;2024-02-21T15:40:59;97216.16;;;12.49;89.90
55289;BME280;41154;45.394;5.734;2024-02-21T15:43:25;97206.41;;;12.38;93.20
55289;BME280;41154;45.394;5.734;2024-02-21T15:45:52;97180.81;;;12.35;92.31
55289;BME280;41154;45.394;5.734;2024-02-21T15:48:18;97176.81;;;12.38;91.44
55289;BME280;41154;45.394;5.734;2024-02-21T15:50:43;97157.19;;;12.37;92.08
55289;BME280;41154;45.394;5.734;2024-02-21T15:53:10;97151.28;;;12.40;94.35
55289;BME280;41154;45.394;5.734;2024-02-21T15:55:36;97155.56;;;12.41;97.70
55289;BME280;41154;45.394;5.734;2024-02-21T15:58:02;97171.53;;;12.53;95.55
55289;BME280;41154;45.394;5.734;2024-02-21T16:00:29;97173.59;;;12.41;95.63
55289;BME280;41154;45.394;5.734;2024-02-21T16:02:57;97183.06;;;12.16;97.16
55289;BME280;41154;45.394;5.734;2024-02-21T16:05:23;97166.81;;;12.01;98.46
55289;BME280;41154;45.394;5.734;2024-02-21T16:07:49;97163.81;;;11.97;97.42
55289;BME280;41154;45.394;5.734;2024-02-21T16:10:15;97172.31;;;11.89;95.21
55289;BME280;41154;45.394;5.734;2024-02-21T16:12:40;97177.88;;;11.82;93.70
55289;BME280;41154;45.394;5.734;2024-02-21T16:15:07;97167.88;;;11.78;93.50
55289;BME280;41154;45.394;5.734;2024-02-21T16:17:33;97153.19;;;12.08;90.52
55289;BME280;41154;45.394;5.734;2024-02-21T16:19:59;97130.59;;;12.14;90.16
55289;BME280;41154;45.394;5.734;2024-02-21T16:22:26;97128.66;;;12.04;91.68
55289;BME280;41154;45.394;5.734;2024-02-21T16:24:52;97122.56;;;11.86;93.29
55289;BME280;41154;45.394;5.734;2024-02-21T16:27:20;97120.00;;;11.69;94.68
55289;BME280;41154;45.394;5.734;2024-02-21T16:29:46;97124.59;;;11.74;95.96
55289;BME280;41154;45.394;5.734;2024-02-21T16:32:13;97114.22;;;11.56;94.84
55289;BME280;41154;45.394;5.734;2024-02-21T16:34:40;97110.75;;;11.60;98.52
55289;BME280;41154;45.394;5.734;2024-02-21T16:37:06;97116.72;;;11.40;100.00
55289;BME280;41154;45.394;5.734;2024-02-21T16:39:31;97129.44;;;11.23;100.00
55289;BME280;41154;45.394;5.734;2024-02-21T16:41:58;97132.66;;;11.25;100.00
55289;BME280;41154;45.394;5.734;2024-02-21T16:44:29;97135.69;;;11.28;100.00
55289;BME280;41154;45.394;5.734;2024-02-21T16:46:55;97120.41;;;11.34;100.00
55289;BME280;41154;45.394;5.734;2024-02-21T16:49:21;97130.13;;;11.35;100.00
55289;BME280;41154;45.394;5.734;2024-02-21T16:51:46;97128.59;;;11.44;100.00
55289;BME280;41154;45.394;5.734;2024-02-21T16:54:21;97121.75;;;11.09;100.00
55289;BME280;41154;45.394;5.734;2024-02-21T16:56:46;97133.06;;;10.89;100.00
55289;BME280;41154;45.394;5.734;2024-02-21T16:59:12;97118.91;;;10.94;100.00
55289;BME280;41154;45.394;5.734;2024-02-21T17:01:38;97121.19;;;10.85;100.00
55289;BME280;41154;45.394;5.734;2024-02-21T17:04:07;97123.84;;;10.63;100.00
55289;BME280;41154;45.394;5.734;2024-02-21T17:06:33;97122.72;;;10.59;100.00
55289;BME280;41154;45.394;5.734;2024-02-21T17:09:00;97120.59;;;10.61;100.00
55289;BME280;41154;45.394;5.734;2024-02-21T17:11:29;97118.03;;;10.49;100.00
55289;BME280;41154;45.394;5.734;2024-02-21T17:13:55;97109.25;;;10.37;100.00
55289;BME280;41154;45.394;5.734;2024-02-21T17:16:20;97113.25;;;10.00;100.00
55289;BME280;41154;45.394;5.734;2024-02-21T17:18:46;97114.47;;;9.93;100.00
55289;BME280;41154;45.394;5.734;2024-02-21T17:21:13;97113.31;;;9.88;100.00
55289;BME280;41154;45.394;5.734;2024-02-21T17:23:39;97123.28;;;9.76;100.00
55289;BME280;41154;45.394;5.734;2024-02-21T17:26:08;97132.47;;;9.80;100.00
55289;BME280;41154;45.394;5.734;2024-02-21T17:28:34;97137.66;;;9.87;100.00
55289;BME280;41154;45.394;5.734;2024-02-21T17:30:59;97131.66;;;10.14;100.00
55289;BME280;41154;45.394;5.734;2024-02-21T17:33:25;97136.22;;;9.96;100.00
55289;BME280;41154;45.394;5.734;2024-02-21T17:35:51;97140.13;;;9.60;100.00
55289;BME280;41154;45.394;5.734;2024-02-21T17:38:18;97137.91;;;9.40;100.00
55289;BME280;41154;45.394;5.734;2024-02-21T17:40:44;97134.28;;;9.63;100.00
55289;BME280;41154;45.394;5.734;2024-02-21T17:43:10;97127.84;;;9.47;100.00
55289;BME280;41154;45.394;5.734;2024-02-21T17:45:38;97131.72;;;9.39;100.00
55289;BME280;41154;45.394;5.734;2024-02-21T17:48:06;97131.84;;;9.44;100.00
55289;BME280;41154;45.394;5.734;2024-02-21T17:50:32;97128.03;;;9.57;100.00
55289;BME280;41154;45.394;5.734;2024-02-21T17:52:58;97136.75;;;9.35;100.00
55289;BME280;41154;45.394;5.734;2024-02-21T17:55:25;97129.69;;;9.17;100.00
55289;BME280;41154;45.394;5.734;2024-02-21T17:57:51;97128.84;;;9.58;100.00
55289;BME280;41154;45.394;5.734;2024-02-21T18:00:17;97131.09;;;9.49;100.00
55289;BME280;41154;45.394;5.734;2024-02-21T18:02:43;97129.75;;;9.34;100.00
55289;BME280;41154;45.394;5.734;2024-02-21T18:05:09;97121.84;;;9.40;100.00
55289;BME280;41154;45.394;5.734;2024-02-21T18:07:34;97116.69;;;9.09;100.00
55289;BME280;41154;45.394;5.734;2024-02-21T18:10:02;97105.34;;;8.90;100.00
55289;BME280;41154;45.394;5.734;2024-02-21T18:12:28;97110.59;;;8.85;100.00
55289;BME280;41154;45.394;5.734;2024-02-21T18:14:54;97105.34;;;8.90;100.00
55289;BME280;41154;45.394;5.734;2024-02-21T18:17:20;97097.97;;;8.97;100.00
55289;BME280;41154;45.394;5.734;2024-02-21T18:19:46;97094.41;;;8.92;100.00
55289;BME280;41154;45.394;5.734;2024-02-21T18:22:12;97095.59;;;8.84;100.00
55289;BME280;41154;45.394;5.734;2024-02-21T18:24:37;97103.31;;;9.09;100.00
55289;BME280;41154;45.394;5.734;2024-02-21T18:27:04;97099.75;;;8.92;100.00
55289;BME280;41154;45.394;5.734;2024-02-21T18:29:30;97101.56;;;8.74;100.00
55289;BME280;41154;45.394;5.734;2024-02-21T18:31:56;97108.63;;;8.80;100.00
55289;BME280;41154;45.394;5.734;2024-02-21T18:34:21;97114.47;;;8.77;100.00
55289;BME280;41154;45.394;5.734;2024-02-21T18:36:47;97120.13;;;8.93;100.00
55289;BME280;41154;45.394;5.734;2024-02-21T18:39:13;97116.09;;;8.67;100.00
55289;BME280;41154;45.394;5.734;2024-02-21T18:41:42;97117.09;;;8.89;100.00
55289;BME280;41154;45.394;5.734;2024-02-21T18:44:12;97117.63;;;9.03;100.00
55289;BME280;41154;45.394;5.734;2024-02-21T18:46:38;97121.78;;;8.82;100.00
55289;BME280;41154;45.394;5.734;2024-02-21T18:49:07;97114.69;;;8.76;100.00
55289;BME280;41154;45.394;5.734;2024-02-21T18:51:33;97123.06;;;8.79;100.00
55289;BME280;41154;45.394;5.734;2024-02-21T18:53:59;97119.06;;;8.94;100.00
55289;BME280;41154;45.394;5.734;2024-02-21T18:56:28;97117.25;;;9.11;100.00
55289;BME280;41154;45.394;5.734;2024-02-21T18:58:56;97118.25;;;8.93;100.00
55289;BME280;41154;45.394;5.734;2024-02-21T19:01:22;97122.31;;;8.96;100.00
55289;BME280;41154;45.394;5.734;2024-02-21T19:03:47;97129.66;;;8.77;100.00
55289;BME280;41154;45.394;5.734;2024-02-21T19:06:13;97124.25;;;8.48;100.00
55289;BME280;41154;45.394;5.734;2024-02-21T19:08:41;97125.06;;;8.49;100.00
55289;BME280;41154;45.394;5.734;2024-02-21T19:11:07;97116.09;;;8.55;100.00
55289;BME280;41154;45.394;5.734;2024-02-21T19:13:32;97112.63;;;8.54;100.00
55289;BME280;41154;45.394;5.734;2024-02-21T19:15:58;97114.03;;;8.45;100.00
55289;BME280;41154;45.394;5.734;2024-02-21T19:18:24;97114.59;;;8.47;100.00
55289;BME280;41154;45.394;5.734;2024-02-21T19:20:50;97112.34;;;8.68;100.00
55289;BME280;41154;45.394;5.734;2024-02-21T19:23:17;97109.94;;;8.54;100.00
55289;BME280;41154;45.394;5.734;2024-02-21T19:25:43;97113.19;;;8.68;100.00
55289;BME280;41154;45.394;5.734;2024-02-21T19:28:09;97112.97;;;8.70;100.00
55289;BME280;41154;45.394;5.734;2024-02-21T19:30:39;97113.75;;;8.82;100.00
55289;BME280;41154;45.394;5.734;2024-02-21T19:33:05;97108.53;;;8.63;100.00
55289;BME280;41154;45.394;5.734;2024-02-21T19:35:30;97103.31;;;8.57;100.00
55289;BME280;41154;45.394;5.734;2024-02-21T19:37:58;97091.66;;;8.39;100.00
55289;BME280;41154;45.394;5.734;2024-02-21T19:40:34;97090.88;;;8.39;100.00
55289;BME280;41154;45.394;5.734;2024-02-21T19:42:59;97080.28;;;8.20;100.00
55289;BME280;41154;45.394;5.734;2024-02-21T19:45:28;97067.28;;;8.59;100.00
55289;BME280;41154;45.394;5.734;2024-02-21T19:47:54;97068.69;;;8.26;100.00
55289;BME280;41154;45.394;5.734;2024-02-21T19:50:20;97070.56;;;8.50;100.00
55289;BME280;41154;45.394;5.734;2024-02-21T19:52:55;97073.56;;;8.30;100.00
55289;BME280;41154;45.394;5.734;2024-02-21T19:55:22;97073.44;;;8.13;100.00
55289;BME280;41154;45.394;5.734;2024-02-21T19:57:48;97066.59;;;8.05;100.00
55289;BME280;41154;45.394;5.734;2024-02-21T20:00:14;97072.06;;;8.34;100.00
55289;BME280;41154;45.394;5.734;2024-02-21T20:02:40;97074.38;;;8.06;100.00
55289;BME280;41154;45.394;5.734;2024-02-21T20:05:08;97067.03;;;8.25;100.00
55289;BME280;41154;45.394;5.734;2024-02-21T20:07:34;97058.34;;;8.18;100.00
55289;BME280;41154;45.394;5.734;2024-02-21T20:10:00;97057.06;;;8.21;100.00
55289;BME280;41154;45.394;5.734;2024-02-21T20:12:26;97059.50;;;8.34;100.00
55289;BME280;41154;45.394;5.734;2024-02-21T20:14:52;97051.72;;;8.44;100.00
55289;BME280;41154;45.394;5.734;2024-02-21T20:17:19;97064.03;;;8.22;100.00
55289;BME280;41154;45.394;5.734;2024-02-21T20:19:45;97075.75;;;8.33;100.00
55289;BME280;41154;45.394;5.734;2024-02-21T20:22:12;97075.53;;;8.46;100.00
55289;BME280;41154;45.394;5.734;2024-02-21T20:24:37;97070.19;;;8.46;100.00
55289;BME280;41154;45.394;5.734;2024-02-21T20:27:03;97059.38;;;8.53;100.00
55289;BME280;41154;45.394;5.734;2024-02-21T20:29:29;97051.63;;;8.92;100.00
55289;BME280;41154;45.394;5.734;2024-02-21T20:31:55;97066.56;;;9.05;100.00
55289;BME280;41154;45.394;5.734;2024-02-21T20:34:24;97065.13;;;8.85;100.00
55289;BME280;41154;45.394;5.734;2024-02-21T20:36:55;97070.47;;;8.85;100.00
55289;BME280;41154;45.394;5.734;2024-02-21T20:39:22;97066.09;;;9.08;100.00
55289;BME280;41154;45.394;5.734;2024-02-21T20:41:47;97070.63;;;9.07;100.00
55289;BME280;41154;45.394;5.734;2024-02-21T20:44:13;97066.00;;;9.03;100.00
55289;BME280;41154;45.394;5.734;2024-02-21T20:46:39;97064.59;;;9.00;100.00
55289;BME280;41154;45.394;5.734;2024-02-21T20:49:04;97065.84;;;8.80;100.00
55289;BME280;41154;45.394;5.734;2024-02-21T20:51:30;97065.63;;;8.58;100.00
55289;BME280;41154;45.394;5.734;2024-02-21T20:53:56;97061.81;;;8.54;100.00
55289;BME280;41154;45.394;5.734;2024-02-21T20:56:21;97066.22;;;8.60;100.00
55289;BME280;41154;45.394;5.734;2024-02-21T20:58:47;97068.44;;;8.63;100.00
55289;BME280;41154;45.394;5.734;2024-02-21T21:01:14;97073.88;;;8.69;100.00
55289;BME280;41154;45.394;5.734;2024-02-21T21:03:40;97066.41;;;9.11;100.00
55289;BME280;41154;45.394;5.734;2024-02-21T21:06:06;97064.69;;;9.34;100.00
55289;BME280;41154;45.394;5.734;2024-02-21T21:08:32;97056.09;;;9.49;100.00
55289;BME280;41154;45.394;5.734;2024-02-21T21:10:58;97057.81;;;9.55;100.00
55289;BME280;41154;45.394;5.734;2024-02-21T21:13:24;97047.69;;;9.57;100.00
55289;BME280;41154;45.394;5.734;2024-02-21T21:15:50;97043.22;;;9.80;100.00
55289;BME280;41154;45.394;5.734;2024-02-21T21:18:16;97039.25;;;9.82;100.00
55289;BME280;41154;45.394;5.734;2024-02-21T21:20:42;97050.47;;;9.96;100.00
55289;BME280;41154;45.394;5.734;2024-02-21T21:23:07;97060.44;;;10.01;100.00
55289;BME280;41154;45.394;5.734;2024-02-21T21:25:36;97054.00;;;10.02;100.00
55289;BME280;41154;45.394;5.734;2024-02-21T21:28:04;97042.97;;;9.98;100.00
55289;BME280;41154;45.394;5.734;2024-02-21T21:30:33;97040.72;;;9.90;100.00
55289;BME280;41154;45.394;5.734;2024-02-21T21:33:00;97044.31;;;9.96;100.00